Terminal Aerodrome Forecast
Issued by NWS Grand Junction, CO

Home | Current Version | Previous Version | Text Only | Print | Product List | Glossary On
Versions: 1 2 3 4 5 6 7 8 9 10 11 12 13 14 15 16 17 18 19 20 21 22 23 24 25 26
000
FTUS45 KGJT 291736
TAFGJT
TAF
KGJT 291736Z 2918/3018 14008KT P6SM FEW250
     FM292100 28005KT P6SM FEW250
     FM300100 02008KT P6SM SKC
     FM300600 08007KT P6SM SKC
     FM300900 12007KT P6SM FEW250
     FM301600 15008KT P6SM FEW250=

USA.gov is the U.S. government's official web portal to all federal, state and local government web resources and services.